Latest Coastal Weather Observations for Dum In Mirrie

IDD60701

Issued at 7:21 pm CST Thursday 2 July 2015 (issued every 10 minutes, with the page automatically refreshed every 10 minutes)

About coastal observations | Map of coastal stations | Coastal observations for NT | Marine services | Other Formats
Station Details ID: 014277 Name: DUM IN MIRRIE AIRSTRIP Lat: -12.63 Lon: 130.37 Height: 3.5 m
Data from the previous 72 hours. | See also: Recent months at Dum In Mirrie
Date/Time
CST
Temp

°C
Wind Pressure Rain
since 9am
mm
Weather Cloud Vis
km
Sea
Height
m
Swell
Dir
 
Speed
knots
Gust
knots
hPa Trend Height
m
Period
s
Dir
02/07:00pm 26.2 NNE 4 7 1013.3 - 0.0 - - - - - - -
02/06:30pm 26.5 NNE 5 8 1013.0 - 0.0 - - - - - - -
02/06:00pm 27.2 N 6 9 1012.7 - 0.0 - - - - - - -
02/05:30pm 28.1 NNE 6 12 1012.6 - 0.0 - - - - - - -
02/05:00pm 28.7 N 6 11 1012.4 - 0.0 - - - - - - -
02/04:30pm 29.0 N 7 11 1012.3 - 0.0 - - - - - - -
02/04:00pm 32.3 ENE 6 9 1012.1 - 0.0 - - - - - - -
02/03:30pm 32.1 ENE 8 11 1012.3 - 0.0 - - - - - - -
02/03:00pm 32.9 ENE 8 13 1012.7 - 0.0 - - - - - - -
02/02:30pm 32.7 ENE 10 17 1013.1 - 0.0 - - - - - - -
02/02:00pm 31.9 ENE 11 17 1013.6 - 0.0 - - - - - - -
02/01:30pm 31.7 ENE 11 17 1014.2 - 0.0 - - - - - - -
02/01:00pm 31.8 E 8 13 1014.8 - 0.0 - - - - - - -
02/12:30pm 30.6 ESE 10 16 1015.3 - 0.0 - - - - - - -
02/12:00pm 30.6 ESE 10 17 1015.7 - 0.0 - - - - - - -
02/11:30am 29.6 E 12 20 1016.2 - 0.0 - - - - - - -
02/11:00am 29.3 ESE 9 13 1016.7 - 0.0 - - - - - - -
02/10:30am 28.2 ESE 9 14 1017.1 - 0.0 - - - - - - -
02/10:00am 28.3 ESE 6 12 1017.3 - 0.0 - - - - - - -
02/09:30am 27.1 ESE 4 9 1017.4 - 0.0 - - - - - - -
02/09:00am 26.2 SE 2 5 1017.2 - 0.0 - - - - - - -
02/08:30am 25.4 ESE 3 5 1017.0 - 0.0 - - - - - - -
02/08:00am 24.3 SE 2 3 1016.8 - 0.0 - - - - - - -
02/07:30am 23.6 ESE 2 4 1016.6 - 0.0 - - - - - - -
02/07:00am 22.8 ESE 2 3 1016.4 - 0.0 - - - - - - -
02/06:30am 23.9 E 2 3 1016.2 - 0.0 - - - - - - -
02/06:00am 24.4 E 2 3 1016.0 - 0.0 - - - - - - -
02/05:30am 24.7 ENE 2 3 1015.9 - 0.0 - - - - - - -
02/05:00am 24.9 E 3 5 1015.9 - 0.0 - - - - - - -
02/04:30am 24.5 E 2 4 1015.9 - 0.0 - - - - - - -
02/04:00am 24.6 ENE 2 4 1015.8 - 0.0 - - - - - - -
02/03:30am 24.1 ENE 2 3 1015.9 - 0.0 - - - - - - -
02/03:00am 24.3 ENE 4 9 1015.9 - 0.0 - - - - - - -
02/02:30am 22.6 ENE 1 2 1016.0 - 0.0 - - - - - - -
02/02:00am 22.3 NE 2 3 1016.1 - 0.0 - - - - - - -
02/01:30am 22.5 E 2 3 1016.2 - 0.0 - - - - - - -
02/01:00am 22.1 E 2 3 1016.2 - 0.0 - - - - - - -
02/12:30am 20.7 E 1 1 1016.1 - 0.0 - - - - - - -
02/12:00am 20.6 CALM 0 0 1016.1 - 0.0 - - - - - - -
 
Date/Time
CST
Temp

°C
Wind Pressure Rain
since 9am
mm
Weather Cloud Vis
km
Sea
Height
m
Swell
Dir
 
Speed
knots
Gust
knots
hPa Trend Height
m
Period
s
Dir
01/11:30pm 20.9 CALM 0 0 1016.3 - 0.0 - - - - - - -
01/11:00pm 21.3 SE 1 1 1016.2 - 0.0 - - - - - - -
01/10:30pm 22.0 SSE 2 2 1016.1 - 0.0 - - - - - - -
01/10:00pm 21.7 SSE 1 2 1015.9 - 0.0 - - - - - - -
01/09:30pm 21.2 CALM 0 0 1015.7 - 0.0 - - - - - - -
01/09:00pm 21.5 CALM 0 0 1015.4 - 0.0 - - - - - - -
01/08:30pm 21.6 CALM 0 0 1015.0 - 0.0 - - - - - - -
01/08:00pm 22.0 CALM 0 0 1014.6 - 0.0 - - - - - - -
01/07:30pm 22.4 CALM 0 0 1014.2 - 0.0 - - - - - - -
01/07:00pm 23.6 CALM 0 0 1014.1 - 0.0 - - - - - - -
01/06:30pm 26.0 NNW 1 2 1013.8 - 0.0 - - - - - - -
01/06:00pm 27.2 WNW 2 6 1013.7 - 0.0 - - - - - - -
01/05:30pm 27.5 WSW 4 8 1013.4 - 0.0 - - - - - - -
01/05:00pm 27.9 W 6 9 1013.3 - 0.0 - - - - - - -
01/04:30pm 28.5 W 5 8 1013.2 - 0.0 - - - - - - -
01/04:00pm - WNW 4 7 1013.1 - 0.0 - - - - - - -
01/03:30pm - W 5 9 1013.3 - 0.0 - - - - - - -
01/03:00pm 29.1 W 5 9 1013.5 - 0.0 - - - - - - -
01/02:30pm 31.9 E 7 11 1013.8 - 0.0 - - - - - - -
01/02:00pm 31.9 E 7 12 1014.2 - 0.0 - - - - - - -
01/01:30pm 31.8 E 6 10 1015.0 - 0.0 - - - - - - -
01/01:00pm 30.8 E 6 12 1015.8 - 0.0 - - - - - - -
01/12:30pm 30.6 E 6 9 1016.4 - 0.0 - - - - - - -
01/12:00pm 30.0 E 5 8 1017.1 - 0.0 - - - - - - -
01/11:30am 29.5 E 5 8 1017.6 - 0.0 - - - - - - -
01/11:00am 28.6 ESE 5 7 1017.9 - 0.0 - - - - - - -
01/10:30am 27.5 ESE 5 7 1018.2 - 0.0 - - - - - - -
01/10:00am 26.4 ESE 4 7 1018.2 - 0.0 - - - - - - -
01/09:30am 25.7 ESE 4 7 1018.2 - 0.0 - - - - - - -
01/09:00am 24.6 ESE 3 5 1017.9 - 0.0 - - - - - - -
01/08:30am 23.5 E 4 6 1017.6 - 0.0 - - - - - - -
01/08:00am 22.0 E 3 5 1017.2 - 0.0 - - - - - - -
01/07:30am 20.3 ESE 2 5 1017.0 - 0.0 - - - - - - -
01/07:00am 20.6 SE 1 3 1016.7 - 0.0 - - - - - - -
01/06:30am 21.3 SSE 3 6 1016.4 - 0.0 - - - - - - -
01/06:00am 20.9 E 2 4 1016.0 - 0.0 - - - - - - -
01/05:30am 20.3 CALM 0 0 1015.8 - 0.0 - - - - - - -
01/05:00am 20.7 CALM 0 0 1015.7 - 0.0 - - - - - - -
01/04:30am 21.1 CALM 0 0 1015.8 - 0.0 - - - - - - -
01/04:00am 21.8 CALM 0 0 1016.1 - 0.0 - - - - - - -
01/03:30am 22.1 CALM 0 0 1016.0 - 0.0 - - - - - - -
01/03:00am 22.7 CALM 0 0 1016.1 - 0.0 - - - - - - -
01/02:30am 23.2 CALM 0 0 1016.2 - 0.0 - - - - - - -
01/02:00am 23.6 SSW 1 1 1016.1 - 0.0 - - - - - - -
01/01:30am 23.6 WSW 1 2 1016.2 - 0.0 - - - - - - -
01/01:00am 23.9 CALM 0 2 1016.3 - 0.0 - - - - - - -
01/12:30am 23.9 CALM 0 1 1016.2 - 0.0 - - - - - - -
01/12:00am 23.7 WSW 2 4 1016.2 - 0.0 - - - - - - -
 
Date/Time
CST
Temp

°C
Wind Pressure Rain
since 9am
mm
Weather Cloud Vis
km
Sea
Height
m
Swell
Dir
 
Speed
knots
Gust
knots
hPa Trend Height
m
Period
s
Dir
30/11:30pm 23.7 WSW 2 4 1016.3 - 0.0 - - - - - - -
30/11:00pm 23.4 WSW 2 4 1016.4 - 0.0 - - - - - - -
30/10:30pm 23.2 CALM 0 3 1016.5 - 0.0 - - - - - - -
30/10:00pm 23.3 W 2 4 1016.4 - 0.0 - - - - - - -
30/09:30pm 22.3 W 1 2 1016.3 - 0.0 - - - - - - -
30/09:00pm 22.7 WNW 2 4 1016.0 - 0.0 - - - - - - -
30/08:30pm 22.4 NW 2 2 1015.5 - 0.0 - - - - - - -
30/08:00pm 24.2 WNW 3 4 1014.9 - 0.0 - - - - - - -
30/07:30pm 24.8 WNW 2 4 1014.5 - 0.0 - - - - - - -
30/07:00pm 24.8 WNW 2 4 1014.2 - 0.0 - - - - - - -
30/06:30pm 25.7 W 3 5 1013.7 - 0.0 - - - - - - -
30/06:00pm 26.7 W 5 8 1013.4 - 0.0 - - - - - - -
30/05:30pm 27.6 W 4 7 1013.1 - 0.0 - - - - - - -
30/05:00pm 27.9 WNW 5 8 1012.9 - 0.0 - - - - - - -
30/04:30pm 27.9 W 5 9 1012.9 - 0.0 - - - - - - -
30/04:00pm 27.9 WNW 5 9 1012.9 - 0.0 - - - - - - -
30/03:30pm 28.9 NW 4 7 1013.0 - 0.0 - - - - - - -
30/03:00pm 31.7 E 7 13 1013.2 - 0.0 - - - - - - -
30/02:30pm 31.5 E 7 13 1013.6 - 0.0 - - - - - - -
30/02:00pm 30.9 NE 4 9 1014.2 - 0.0 - - - - - - -
30/01:30pm 30.4 NE 5 9 1014.7 - 0.0 - - - - - - -
30/01:00pm 29.7 NE 4 7 1015.3 - 0.0 - - - - - - -
30/12:30pm 30.1 NE 4 7 1015.8 - 0.0 - - - - - - -
30/12:00pm 29.3 ENE 4 8 1016.3 - 0.0 - - - - - - -
30/11:30am 28.0 ENE 5 8 1016.8 - 0.0 - - - - - - -
30/11:00am 27.9 NE 5 9 1017.1 - 0.0 - - - - - - -
30/10:30am 26.7 ENE 6 9 1017.4 - 0.0 - - - - - - -
30/10:00am 25.8 E 6 9 1017.5 - 0.0 - - - - - - -
30/09:30am 24.9 E 6 8 1017.6 - 0.0 - - - - - - -
30/09:00am 23.8 E 5 7 1017.3 - 0.0 - - - - - - -
30/08:30am 22.5 E 6 9 1017.0 - 0.0 - - - - - - -
30/08:00am 21.3 ESE 3 5 1016.6 - 0.0 - - - - - - -
30/07:30am 19.6 ESE 3 6 1016.2 - 0.0 - - - - - - -
30/07:00am 16.6 ESE 2 3 1015.9 - 0.0 - - - - - - -
30/06:30am 17.6 SE 2 3 1015.6 - 0.0 - - - - - - -
30/06:00am 16.7 SE 1 3 1015.7 - 0.0 - - - - - - -
30/05:30am 17.5 SSE 1 2 1015.6 - 0.0 - - - - - - -
30/05:00am 18.1 SSE 1 1 1015.6 - 0.0 - - - - - - -
30/04:30am 17.9 S 2 4 1015.5 - 0.0 - - - - - - -
30/04:00am 18.1 S 2 3 1015.6 - 0.0 - - - - - - -
30/03:30am 17.8 SSE 1 3 1015.7 - 0.0 - - - - - - -
30/03:00am 17.5 CALM 0 1 1015.8 - 0.0 - - - - - - -
30/02:30am 19.2 SSE 1 3 1015.9 - 0.0 - - - - - - -
30/02:00am 18.6 S 1 2 1016.1 - 0.0 - - - - - - -
30/01:30am 18.6 SSE 2 2 1016.2 - 0.0 - - - - - - -
30/01:00am 18.6 S 1 2 1016.2 - 0.0 - - - - - - -
30/12:30am 18.6 S 1 2 1016.3 - 0.0 - - - - - - -
30/12:00am 18.1 CALM 0 0 1016.3 - 0.0 - - - - - - -
 
Date/Time
CST
Temp

°C
Wind Pressure Rain
since 9am
mm
Weather Cloud Vis
km
Sea
Height
m
Swell
Dir
 
Speed
knots
Gust
knots
hPa Trend Height
m
Period
s
Dir
29/11:30pm 19.0 CALM 0 2 1016.3 - 0.0 - - - - - - -
29/11:00pm 19.4 CALM 0 1 1016.3 - 0.0 - - - - - - -
29/10:30pm 20.4 SSW 2 3 1016.2 - 0.0 - - - - - - -
29/10:00pm 20.4 SSW 2 3 1016.2 - 0.0 - - - - - - -
29/09:30pm 19.8 WSW 1 2 1016.0 - 0.0 - - - - - - -
29/09:00pm 20.1 CALM 0 1 1015.7 - 0.0 - - - - - - -
29/08:30pm 21.4 W 1 2 1015.5 - 0.0 - - - - - - -
29/08:00pm 22.9 WNW 2 2 1015.2 - 0.0 - - - - - - -
29/07:30pm 23.4 WNW 2 3 1014.9 - 0.0 - - - - - - -

Other Formats:

Comma delimited format used in spreadsheet applications
http://www.bom.gov.au/fwo/IDD60701/IDD60701.94116.axf

JavaScript Object Notation format (JSON) in row-major order
http://www.bom.gov.au/fwo/IDD60701/IDD60701.94116.json